Time,TemperatureF,DewpointF,PressureIn,WindDirection,WindDirectionDegrees,WindSpeedMPH,WindSpeedGustMPH,Humidity,HourlyPrecipIn,Conditions,Clouds,dailyrainin,SoftwareType,DateUTC
2013-04-27 00:08:00,45.2,38.0,30.04,SE,140,0.0,-999.0,75,-99.99,,,0.00,weatherlink.com 1.10,2013-04-27 05:08:00,
2013-04-27 00:23:00,44.6,37.0,30.04,SE,140,0.0,-999.0,75,-99.99,,,0.00,weatherlink.com 1.10,2013-04-27 05:23:00,
2013-04-27 00:38:00,44.1,37.0,30.04,SE,140,0.0,-999.0,76,-99.99,,,0.00,weatherlink.com 1.10,2013-04-27 05:38:00,
2013-04-27 00:53:00,43.3,37.0,30.04,SE,140,0.0,-999.0,77,-99.99,,,0.00,weatherlink.com 1.10,2013-04-27 05:53:00,
2013-04-27 01:09:00,42.6,37.0,30.04,SE,140,0.0,-999.0,79,-99.99,,,0.00,weatherlink.com 1.10,2013-04-27 06:09:00,
2013-04-27 01:24:00,42.1,36.0,30.04,SE,140,0.0,-999.0,80,-99.99,,,0.00,weatherlink.com 1.10,2013-04-27 06:24:00,
2013-04-27 01:39:00,41.5,36.0,30.04,SE,140,0.0,-999.0,81,-99.99,,,0.00,weatherlink.com 1.10,2013-04-27 06:39:00,
2013-04-27 01:54:00,40.9,36.0,30.05,SE,140,0.0,-999.0,82,-99.99,,,0.00,weatherlink.com 1.10,2013-04-27 06:54:00,
2013-04-27 02:08:00,40.6,36.0,30.05,SE,140,0.0,-999.0,83,-99.99,,,0.00,weatherlink.com 1.10,2013-04-27 07:08:00,
2013-04-27 02:23:00,40.3,36.0,30.05,SE,140,0.0,-999.0,85,-99.99,,,0.00,weatherlink.com 1.10,2013-04-27 07:23:00,
2013-04-27 02:38:00,40.3,37.0,30.04,SE,140,0.0,-999.0,86,-99.99,,,0.00,weatherlink.com 1.10,2013-04-27 07:38:00,
2013-04-27 02:54:00,40.1,36.0,30.04,SE,140,0.0,-999.0,86,-99.99,,,0.00,weatherlink.com 1.10,2013-04-27 07:54:00,
2013-04-27 03:09:00,39.5,36.0,30.04,SE,140,0.0,-999.0,86,-99.99,,,0.00,weatherlink.com 1.10,2013-04-27 08:09:00,
2013-04-27 03:24:00,39.2,35.0,30.04,SE,140,0.0,-999.0,86,-99.99,,,0.00,weatherlink.com 1.10,2013-04-27 08:24:00,
2013-04-27 03:39:00,38.6,35.0,30.04,SE,140,0.0,-999.0,86,-99.99,,,0.00,weatherlink.com 1.10,2013-04-27 08:39:00,
2013-04-27 03:54:00,38.0,34.0,30.04,SE,140,0.0,-999.0,86,-99.99,,,0.00,weatherlink.com 1.10,2013-04-27 08:54:00,
2013-04-27 04:09:00,37.6,34.0,30.04,SE,140,0.0,-999.0,86,-99.99,,,0.00,weatherlink.com 1.10,2013-04-27 09:09:00,
2013-04-27 04:24:00,37.2,34.0,30.04,SE,140,0.0,-999.0,87,-99.99,,,0.00,weatherlink.com 1.10,2013-04-27 09:24:00,
2013-04-27 04:39:00,36.9,34.0,30.04,SE,140,0.0,-999.0,88,-99.99,,,0.00,weatherlink.com 1.10,2013-04-27 09:39:00,
2013-04-27 04:54:00,36.8,34.0,30.04,SE,140,0.0,-999.0,88,-99.99,,,0.00,weatherlink.com 1.10,2013-04-27 09:54:00,
2013-04-27 05:09:00,36.5,34.0,30.03,SE,140,0.0,-999.0,89,-99.99,,,0.00,weatherlink.com 1.10,2013-04-27 10:09:00,
2013-04-27 05:24:00,36.2,33.0,30.03,SE,140,0.0,-999.0,89,-99.99,,,0.00,weatherlink.com 1.10,2013-04-27 10:24:00,
2013-04-27 05:39:00,35.8,33.0,30.04,SE,140,0.0,-999.0,89,-99.99,,,0.00,weatherlink.com 1.10,2013-04-27 10:39:00,
2013-04-27 05:54:00,35.5,33.0,30.04,SE,140,0.0,-999.0,90,-99.99,,,0.00,weatherlink.com 1.10,2013-04-27 10:54:00,
2013-04-27 06:10:00,35.3,33.0,30.04,SE,140,0.0,-999.0,90,-99.99,,,0.00,weatherlink.com 1.10,2013-04-27 11:10:00,
2013-04-27 06:25:00,35.0,33.0,30.04,SE,140,0.0,-999.0,91,-99.99,,,0.00,weatherlink.com 1.10,2013-04-27 11:25:00,
2013-04-27 06:40:00,34.9,33.0,30.04,SE,140,0.0,-999.0,91,-99.99,,,0.00,weatherlink.com 1.10,2013-04-27 11:40:00,
2013-04-27 06:55:00,35.0,33.0,30.05,SE,140,0.0,-999.0,92,-99.99,,,0.00,weatherlink.com 1.10,2013-04-27 11:55:00,
2013-04-27 07:10:00,35.3,34.0,30.05,SE,140,0.0,-999.0,93,-99.99,,,0.00,weatherlink.com 1.10,2013-04-27 12:10:00,
2013-04-27 07:25:00,36.3,35.0,30.05,SE,140,0.0,-999.0,94,-99.99,,,0.00,weatherlink.com 1.10,2013-04-27 12:25:00,
2013-04-27 07:40:00,38.0,37.0,30.06,SE,140,0.0,-999.0,96,-99.99,,,0.00,weatherlink.com 1.10,2013-04-27 12:40:00,
2013-04-27 07:55:00,40.9,40.0,30.06,South,175,2.0,-999.0,97,-99.99,,,0.00,weatherlink.com 1.10,2013-04-27 12:55:00,
2013-04-27 08:10:00,46.2,46.0,30.05,SSE,161,0.0,-999.0,98,-99.99,,,0.00,weatherlink.com 1.10,2013-04-27 13:10:00,
2013-04-27 08:25:00,48.9,48.0,30.06,SSW,209,2.0,-999.0,97,-99.99,,,0.00,weatherlink.com 1.10,2013-04-27 13:25:00,
2013-04-27 08:40:00,50.4,48.0,30.05,West,273,3.0,-999.0,91,-99.99,,,0.00,weatherlink.com 1.10,2013-04-27 13:40:00,
2013-04-27 08:55:00,52.0,48.0,30.05,SW,226,2.0,-999.0,86,-99.99,,,0.00,weatherlink.com 1.10,2013-04-27 13:55:00,
2013-04-27 09:10:00,53.8,47.0,30.05,SSW,200,3.0,-999.0,79,-99.99,,,0.00,weatherlink.com 1.10,2013-04-27 14:10:00,
2013-04-27 09:25:00,55.6,47.0,30.05,SW,227,3.0,-999.0,73,-99.99,,,0.00,weatherlink.com 1.10,2013-04-27 14:25:00,
2013-04-27 09:40:00,57.0,47.0,30.05,WNW,286,2.0,-999.0,69,-99.99,,,0.00,weatherlink.com 1.10,2013-04-27 14:40:00,
2013-04-27 09:55:00,58.7,47.0,30.04,South,175,4.0,-999.0,66,-99.99,,,0.00,weatherlink.com 1.10,2013-04-27 14:55:00,
2013-04-27 10:10:00,60.7,47.0,30.04,South,190,1.0,-999.0,62,-99.99,,,0.00,weatherlink.com 1.10,2013-04-27 15:10:00,
2013-04-27 10:26:00,62.6,48.0,30.03,South,179,0.0,-999.0,59,-99.99,,,0.00,weatherlink.com 1.10,2013-04-27 15:26:00,
2013-04-27 10:41:00,64.8,48.0,30.03,SSW,212,0.0,-999.0,55,-99.99,,,0.00,weatherlink.com 1.10,2013-04-27 15:41:00,
2013-04-27 10:56:00,66.9,48.0,30.03,South,175,5.0,-999.0,51,-99.99,,,0.00,weatherlink.com 1.10,2013-04-27 15:56:00,
2013-04-27 11:11:00,68.1,48.0,30.02,South,190,1.0,-999.0,48,-99.99,,,0.00,weatherlink.com 1.10,2013-04-27 16:11:00,
2013-04-27 11:26:00,69.1,47.0,30.02,WNW,286,0.0,-999.0,46,-99.99,,,0.00,weatherlink.com 1.10,2013-04-27 16:26:00,
2013-04-27 11:41:00,69.4,48.0,30.02,WNW,284,0.0,-999.0,46,-99.99,,,0.00,weatherlink.com 1.10,2013-04-27 16:41:00,
2013-04-27 11:56:00,70.1,48.0,30.02,WNW,301,1.0,-999.0,45,-99.99,,,0.00,weatherlink.com 1.10,2013-04-27 16:56:00,
2013-04-27 12:11:00,69.6,47.0,30.02,SSE,164,5.0,-999.0,45,-99.99,,,0.00,weatherlink.com 1.10,2013-04-27 17:11:00,
2013-04-27 12:26:00,69.9,46.0,30.02,SW,219,3.0,-999.0,43,-99.99,,,0.00,weatherlink.com 1.10,2013-04-27 17:26:00,
2013-04-27 12:41:00,71.8,47.0,30.01,SSE,155,4.0,-999.0,41,-99.99,,,0.00,weatherlink.com 1.10,2013-04-27 17:41:00,
2013-04-27 12:57:00,73.3,47.0,30.00,South,184,0.0,-999.0,39,-99.99,,,0.00,weatherlink.com 1.10,2013-04-27 17:57:00,
2013-04-27 13:12:00,73.5,47.0,29.99,West,277,1.0,-999.0,39,-99.99,,,0.00,weatherlink.com 1.10,2013-04-27 18:12:00,
2013-04-27 13:27:00,73.2,46.0,29.98,SW,234,3.0,-999.0,38,-99.99,,,0.00,weatherlink.com 1.10,2013-04-27 18:27:00,
2013-04-27 13:42:00,73.5,45.0,29.97,SSW,211,6.0,-999.0,36,-99.99,,,0.00,weatherlink.com 1.10,2013-04-27 18:42:00,
2013-04-27 13:57:00,73.9,45.0,29.97,SSW,196,0.0,-999.0,36,-99.99,,,0.00,weatherlink.com 1.10,2013-04-27 18:57:00,
2013-04-27 14:12:00,73.0,47.0,29.96,SW,229,3.0,-999.0,39,-99.99,,,0.00,weatherlink.com 1.10,2013-04-27 19:12:00,
2013-04-27 14:27:00,73.9,46.0,29.96,WSW,237,0.0,-999.0,37,-99.99,,,0.00,weatherlink.com 1.10,2013-04-27 19:27:00,
2013-04-27 14:42:00,73.9,47.0,29.96,South,175,4.0,-999.0,38,-99.99,,,0.00,weatherlink.com 1.10,2013-04-27 19:42:00,
2013-04-27 14:57:00,73.3,46.0,29.95,SW,219,6.0,-999.0,38,-99.99,,,0.00,weatherlink.com 1.10,2013-04-27 19:57:00,
2013-04-27 15:12:00,72.5,47.0,29.95,SSE,148,5.0,-999.0,40,-99.99,,,0.00,weatherlink.com 1.10,2013-04-27 20:12:00,
2013-04-27 15:27:00,73.9,47.0,29.94,South,182,5.0,-999.0,38,-99.99,,,0.00,weatherlink.com 1.10,2013-04-27 20:27:00,
2013-04-27 15:42:00,74.4,47.0,29.93,South,183,6.0,-999.0,38,-99.99,,,0.00,weatherlink.com 1.10,2013-04-27 20:42:00,
2013-04-27 15:57:00,73.2,45.0,29.93,SSE,165,4.0,-999.0,37,-99.99,,,0.00,weatherlink.com 1.10,2013-04-27 20:57:00,
2013-04-27 16:11:00,72.1,44.0,29.93,South,175,1.0,-999.0,37,-99.99,,,0.00,weatherlink.com 1.10,2013-04-27 21:11:00,
2013-04-27 16:26:00,73.9,45.0,29.93,South,190,2.0,-999.0,35,-99.99,,,0.00,weatherlink.com 1.10,2013-04-27 21:26:00,
2013-04-27 16:42:00,72.5,46.0,29.92,SSW,202,2.0,-999.0,39,-99.99,,,0.00,weatherlink.com 1.10,2013-04-27 21:42:00,
2013-04-27 16:57:00,72.3,45.0,29.91,SSW,209,6.0,-999.0,38,-99.99,,,0.00,weatherlink.com 1.10,2013-04-27 21:57:00,
2013-04-27 17:12:00,72.0,46.0,29.91,SW,220,8.0,-999.0,39,-99.99,,,0.00,weatherlink.com 1.10,2013-04-27 22:12:00,
2013-04-27 17:27:00,71.3,46.0,29.91,WNW,300,1.0,-999.0,40,-99.99,,,0.00,weatherlink.com 1.10,2013-04-27 22:27:00,
2013-04-27 17:42:00,71.1,46.0,29.91,WNW,282,4.0,-999.0,41,-99.99,,,0.00,weatherlink.com 1.10,2013-04-27 22:42:00,
2013-04-27 17:57:00,70.3,46.0,29.91,South,170,1.0,-999.0,42,-99.99,,,0.00,weatherlink.com 1.10,2013-04-27 22:57:00,
2013-04-27 18:12:00,69.8,46.0,29.90,SE,131,3.0,-999.0,43,-99.99,,,0.00,weatherlink.com 1.10,2013-04-27 23:12:00,
2013-04-27 18:27:00,69.6,45.0,29.90,South,171,8.0,-999.0,42,-99.99,,,0.00,weatherlink.com 1.10,2013-04-27 23:27:00,
2013-04-27 18:42:00,68.9,45.0,29.90,SW,218,2.0,-999.0,43,-99.99,,,0.00,weatherlink.com 1.10,2013-04-27 23:42:00,
2013-04-27 18:57:00,68.3,45.0,29.90,South,189,0.0,-999.0,44,-99.99,,,0.00,weatherlink.com 1.10,2013-04-27 23:57:00,
2013-04-27 19:13:00,67.8,46.0,29.90,SE,146,0.0,-999.0,45,-99.99,,,0.00,weatherlink.com 1.10,2013-04-28 00:13:00,
2013-04-27 19:28:00,67.3,46.0,29.89,SSW,211,0.0,-999.0,46,-99.99,,,0.00,weatherlink.com 1.10,2013-04-28 00:28:00,
2013-04-27 19:43:00,66.6,46.0,29.89,SSW,211,0.0,-999.0,47,-99.99,,,0.00,weatherlink.com 1.10,2013-04-28 00:43:00,
2013-04-27 19:58:00,65.6,46.0,29.90,SSW,211,0.0,-999.0,50,-99.99,,,0.00,weatherlink.com 1.10,2013-04-28 00:58:00,
2013-04-27 20:12:00,64.0,46.0,29.90,SSW,211,0.0,-999.0,52,-99.99,,,0.00,weatherlink.com 1.10,2013-04-28 01:12:00,
2013-04-27 20:27:00,62.0,45.0,29.89,SSW,211,0.0,-999.0,54,-99.99,,,0.00,weatherlink.com 1.10,2013-04-28 01:27:00,
2013-04-27 20:42:00,59.9,45.0,29.89,SSW,211,0.0,-999.0,58,-99.99,,,0.00,weatherlink.com 1.10,2013-04-28 01:42:00,
2013-04-27 20:57:00,58.6,45.0,29.89,SSW,211,0.0,-999.0,60,-99.99,,,0.00,weatherlink.com 1.10,2013-04-28 01:57:00,
2013-04-27 21:13:00,57.3,44.0,29.89,SSW,211,0.0,-999.0,62,-99.99,,,0.00,weatherlink.com 1.10,2013-04-28 02:13:00,
2013-04-27 21:28:00,56.5,44.0,29.89,SSW,211,0.0,-999.0,63,-99.99,,,0.00,weatherlink.com 1.10,2013-04-28 02:28:00,
2013-04-27 21:43:00,55.4,44.0,29.89,SSW,211,0.0,-999.0,65,-99.99,,,0.00,weatherlink.com 1.10,2013-04-28 02:43:00,
2013-04-27 21:58:00,54.4,43.0,29.89,SSW,211,0.0,-999.0,66,-99.99,,,0.00,weatherlink.com 1.10,2013-04-28 02:58:00,
2013-04-27 22:12:00,53.2,43.0,29.89,SSW,211,0.0,-999.0,69,-99.99,,,0.00,weatherlink.com 1.10,2013-04-28 03:12:00,
2013-04-27 22:27:00,52.6,43.0,29.89,SSW,211,0.0,-999.0,70,-99.99,,,0.00,weatherlink.com 1.10,2013-04-28 03:27:00,
2013-04-27 22:42:00,52.3,43.0,29.89,SSW,211,0.0,-999.0,71,-99.99,,,0.00,weatherlink.com 1.10,2013-04-28 03:42:00,
2013-04-27 22:57:00,52.8,44.0,29.88,South,182,1.0,-999.0,72,-99.99,,,0.00,weatherlink.com 1.10,2013-04-28 03:57:00,
2013-04-27 23:13:00,54.1,44.0,29.88,SSW,209,1.0,-999.0,69,-99.99,,,0.00,weatherlink.com 1.10,2013-04-28 04:13:00,
2013-04-27 23:28:00,54.4,44.0,29.87,South,177,1.0,-999.0,69,-99.99,,,0.00,weatherlink.com 1.10,2013-04-28 04:28:00,
2013-04-27 23:43:00,54.2,44.0,29.87,SE,132,1.0,-999.0,69,-99.99,,,0.00,weatherlink.com 1.10,2013-04-28 04:43:00,
2013-04-27 23:58:00,53.9,44.0,29.87,SE,126,1.0,-999.0,69,-99.99,,,0.00,weatherlink.com 1.10,2013-04-28 04:58:00,